This is the latest recevied weather packets stored in our database for station/object WW0K. If no packets are shown the sender has not sent any weather packets the latest 10 day(s).
| Time | Temp. | Humidity | Pressure | Rain* | Wind** | Luminosity | Snow |
|---|---|---|---|---|---|---|---|
| 1777377320 | 5.56° C | 90% | - | 0 mm | - | - | - |
| 1777375522 | 6.11° C | 88% | - | 0 mm | - | - | - |
| 1777374331 | 6.11° C | 88% | - | 0 mm | - | - | - |
| 1777371920 | 6.67° C | 85% | - | 0 mm | - | - | - |
| 1777365331 | 8.33° C | 83% | - | 0 mm | - | - | - |
| 1777361730 | 8.33° C | 83% | - | 0 mm | - | - | - |
| 1777356923 | 8.89° C | 85% | - | 0 mm | - | - | - |
| 1777354529 | 8.89° C | 85% | - | 0 mm | - | - | - |
| 1777351524 | 8.89° C | 85% | - | 0 mm | - | - | - |
| 1777350334 | 9.44° C | 84% | - | 0 mm | - | - | - |
| 1777343727 | 10.56° C | 85% | - | 0 mm | - | - | - |
| 1777338920 | 11.11° C | 85% | - | 0 mm | - | - | - |
| 1777338325 | 11.11° C | 85% | - | 0 mm | - | - | - |
| 1777334724 | 12.78° C | 81% | - | 0 mm | - | - | - |
| 1777334130 | 12.78° C | 82% | - | 0 mm | - | - | - |
| 1777327525 | 14.44° C | 84% | - | 0 mm | - | - | - |
| 1777326334 | 15° C | 84% | - | 0 mm | - | - | - |
| 1777312546 | 23.89° C | 63% | - | 0 mm | - | - | - |
| 1777311932 | 22.78° C | 66% | - | 0 mm | - | - | - |
| 1777310131 | 22.22° C | 68% | - | 0 mm | - | - | - |
| 1777306531 | 21.11° C | 76% | - | 0.25 mm | - | - | - |
| 1777304730 | 20° C | 77% | - | 0 mm | - | - | - |
| 1777299330 | 15.56° C | 99% | - | 0 mm | - | - | - |
| 1777298739 | 15° C | 99% | - | 0 mm | - | - | - |
| 1777294524 | 15° C | 99% | - | 0.76 mm | - | - | - |
* Rain latest hour (hover to see other rain measurements)
** Current wind speed in m/s (hover to see current wind gust speed)